Alexandria, Virginia
Current Conditions -  °F | °C
As of 9:52 PM on Tuesday 25 Nov 2014 (Local Time) from KDCA Reporting Station
Overcast Overcast  
Wind Chill: 51°   Ceiling: 16000
Heat Index: 51°   Visibility: 10mi
Dew Point: 36°   Wind: 0mph
Humidity: 56%   Direction: NA
Pressure: 30.15"   Gusts: NA
Location:  38.8°N, 77.04°W
Report Text: KDCA 260252Z 00000KT 10SM OVC160 11/02 A3015 RMK AO2 SLP209 T01060022 51013
Loading
Personal Weather Stations






























Interactive Weather Map New forecast layout! Learn more

10-Day Weather Forecast

Advertisements
Track Severe Weather on mobile